CTV185 WARR-WAOO
Flight info
| Callsign | CTV185 |
|---|---|
| Flight time | 0h 48m |
| Altitude | 35000 |
| Route | RAMPY T13 IKAPI |
| Aircraft | A320/M-SDE3FGHIRWY/LB1 |
Departure
| Time | 2026-04-28 13:53 |
|---|---|
| Airport | Juanda International Airport (WARR) |
Arrival
| Time | 2026-04-28 14:42 |
|---|---|
| Airport | Syamsudin Noor International Airport (WAOO) |
| Time | Latitude | Longitude | Altitude | Speed | Heading |
|---|---|---|---|---|---|
| 2026-04-28 13:41 | -7.37550 | 112.79240 | 9 ft | 0 kts | 9° |
| 2026-04-28 13:42 | -7.37552 | 112.79239 | 9 ft | 2 kts | 9° |
| 2026-04-28 13:42 | -7.37573 | 112.79237 | 11 ft | 3 kts | 4° |
| 2026-04-28 13:43 | -7.37584 | 112.79236 | 10 ft | 3 kts | 0° |
| 2026-04-28 13:43 | -7.37603 | 112.79236 | 11 ft | 3 kts | 352° |
| 2026-04-28 13:43 | -7.37623 | 112.79241 | 11 ft | 3 kts | 337° |
| 2026-04-28 13:43 | -7.37640 | 112.79250 | 10 ft | 3 kts | 303° |
| 2026-04-28 13:44 | -7.37644 | 112.79260 | 11 ft | 0 kts | 279° |
| 2026-04-28 13:46 | -7.37644 | 112.79259 | 11 ft | 0 kts | 279° |
| 2026-04-28 13:46 | -7.37641 | 112.79235 | 10 ft | 7 kts | 279° |
| 2026-04-28 13:47 | -7.37630 | 112.79164 | 10 ft | 12 kts | 277° |
| 2026-04-28 13:47 | -7.37629 | 112.79106 | 9 ft | 5 kts | 236° |
| 2026-04-28 13:47 | -7.37661 | 112.79098 | 9 ft | 6 kts | 189° |
| 2026-04-28 13:47 | -7.37704 | 112.79091 | 9 ft | 6 kts | 189° |
| 2026-04-28 13:48 | -7.37762 | 112.79082 | 9 ft | 12 kts | 189° |
| 2026-04-28 13:48 | -7.37837 | 112.79066 | 11 ft | 10 kts | 207° |
| 2026-04-28 13:48 | -7.37859 | 112.79008 | 9 ft | 9 kts | 274° |
| 2026-04-28 13:48 | -7.37847 | 112.78930 | 10 ft | 13 kts | 279° |
| 2026-04-28 13:49 | -7.37831 | 112.78829 | 9 ft | 16 kts | 279° |
| 2026-04-28 13:49 | -7.37811 | 112.78703 | 9 ft | 20 kts | 279° |
| 2026-04-28 13:49 | -7.37787 | 112.78554 | 9 ft | 23 kts | 279° |
| 2026-04-28 13:49 | -7.37759 | 112.78386 | 10 ft | 26 kts | 279° |
| 2026-04-28 13:50 | -7.37729 | 112.78197 | 9 ft | 28 kts | 279° |
| 2026-04-28 13:50 | -7.37697 | 112.77997 | 9 ft | 30 kts | 279° |
| 2026-04-28 13:50 | -7.37663 | 112.77787 | 9 ft | 31 kts | 279° |
| 2026-04-28 13:50 | -7.37627 | 112.77570 | 9 ft | 31 kts | 279° |
| 2026-04-28 13:51 | -7.37608 | 112.77448 | 9 ft | 9 kts | 275° |
| 2026-04-28 13:51 | -7.37622 | 112.77401 | 10 ft | 6 kts | 237° |
| 2026-04-28 13:51 | -7.37676 | 112.77380 | 8 ft | 11 kts | 188° |
| 2026-04-28 13:51 | -7.37746 | 112.77370 | 9 ft | 9 kts | 185° |
| 2026-04-28 13:52 | -7.37776 | 112.77405 | 9 ft | 6 kts | 100° |
| 2026-04-28 13:52 | -7.37777 | 112.77409 | 9 ft | 0 kts | 100° |
| 2026-04-28 13:52 | -7.37791 | 112.77491 | 9 ft | 41 kts | 99° |
| 2026-04-28 13:52 | -7.37876 | 112.78029 | 9 ft | 110 kts | 99° |
| 2026-04-28 13:53 | -7.38030 | 112.78966 | 11 ft | 162 kts | 101° |
| 2026-04-28 13:53 | -7.38223 | 112.80142 | 485 ft | 169 kts | 97° |
| 2026-04-28 13:53 | -7.38413 | 112.81312 | 1127 ft | 168 kts | 99° |
| 2026-04-28 13:53 | -7.38604 | 112.82506 | 1560 ft | 182 kts | 99° |
| 2026-04-28 13:54 | -7.38818 | 112.83845 | 1823 ft | 206 kts | 98° |
| 2026-04-28 13:54 | -7.39055 | 112.85322 | 2156 ft | 231 kts | 99° |
| 2026-04-28 13:54 | -7.39329 | 112.87028 | 2618 ft | 252 kts | 99° |
| 2026-04-28 13:54 | -7.39614 | 112.88796 | 3374 ft | 261 kts | 99° |
| 2026-04-28 13:55 | -7.39812 | 112.90629 | 4208 ft | 265 kts | 89° |
| 2026-04-28 13:55 | -7.39544 | 112.92467 | 5076 ft | 268 kts | 74° |
| 2026-04-28 13:55 | -7.38730 | 112.94168 | 5902 ft | 273 kts | 56° |
| 2026-04-28 13:55 | -7.37600 | 112.95712 | 6721 ft | 276 kts | 54° |
| 2026-04-28 13:56 | -7.36434 | 112.97275 | 7501 ft | 279 kts | 54° |
| 2026-04-28 13:56 | -7.35273 | 112.98822 | 8254 ft | 283 kts | 54° |
| 2026-04-28 13:56 | -7.34079 | 113.00414 | 9016 ft | 286 kts | 54° |
| 2026-04-28 13:56 | -7.32872 | 113.02028 | 9743 ft | 290 kts | 54° |
| 2026-04-28 13:57 | -7.31642 | 113.03676 | 10289 ft | 301 kts | 54° |
| 2026-04-28 13:57 | -7.30339 | 113.05429 | 10461 ft | 324 kts | 54° |
| 2026-04-28 13:57 | -7.28961 | 113.07283 | 10922 ft | 335 kts | 54° |
| 2026-04-28 13:57 | -7.27465 | 113.09099 | 11536 ft | 340 kts | 45° |
| 2026-04-28 13:58 | -7.25585 | 113.10563 | 12178 ft | 345 kts | 31° |
| 2026-04-28 13:58 | -7.23383 | 113.11560 | 12810 ft | 350 kts | 18° |
| 2026-04-28 13:58 | -7.20999 | 113.12143 | 13445 ft | 355 kts | 14° |
| 2026-04-28 13:58 | -7.18582 | 113.12700 | 14034 ft | 358 kts | 14° |
| 2026-04-28 13:59 | -7.16144 | 113.13266 | 14599 ft | 361 kts | 14° |
| 2026-04-28 13:59 | -7.13682 | 113.13839 | 15158 ft | 364 kts | 14° |
| 2026-04-28 13:59 | -7.11204 | 113.14420 | 15714 ft | 367 kts | 14° |
| 2026-04-28 13:59 | -7.08706 | 113.15005 | 16268 ft | 370 kts | 14° |
| 2026-04-28 14:00 | -7.06189 | 113.15596 | 16819 ft | 373 kts | 14° |
| 2026-04-28 14:00 | -7.03655 | 113.16191 | 17367 ft | 375 kts | 13° |
| 2026-04-28 14:00 | -7.01099 | 113.16790 | 17905 ft | 378 kts | 13° |
| 2026-04-28 14:00 | -6.98531 | 113.17394 | 18400 ft | 381 kts | 14° |
| 2026-04-28 14:01 | -6.95972 | 113.17995 | 18861 ft | 384 kts | 14° |
| 2026-04-28 14:01 | -6.93362 | 113.18606 | 19320 ft | 386 kts | 14° |
| 2026-04-28 14:01 | -6.90739 | 113.19222 | 19796 ft | 389 kts | 14° |
| 2026-04-28 14:01 | -6.88096 | 113.19843 | 20258 ft | 391 kts | 14° |
| 2026-04-28 14:02 | -6.85430 | 113.20469 | 20723 ft | 394 kts | 14° |
| 2026-04-28 14:02 | -6.82754 | 113.21095 | 21189 ft | 396 kts | 14° |
| 2026-04-28 14:02 | -6.80056 | 113.21727 | 21651 ft | 399 kts | 14° |
| 2026-04-28 14:02 | -6.77346 | 113.22365 | 22108 ft | 402 kts | 14° |
| 2026-04-28 14:03 | -6.74609 | 113.23007 | 22554 ft | 405 kts | 15° |
| 2026-04-28 14:03 | -6.72788 | 113.23433 | 22850 ft | 407 kts | 14° |
| 2026-04-28 14:03 | -6.70021 | 113.24079 | 23286 ft | 410 kts | 14° |
| 2026-04-28 14:03 | -6.67238 | 113.24731 | 23674 ft | 412 kts | 14° |
| 2026-04-28 14:04 | -6.64434 | 113.25388 | 24025 ft | 415 kts | 15° |
| 2026-04-28 14:04 | -6.61613 | 113.26049 | 24390 ft | 417 kts | 14° |
| 2026-04-28 14:04 | -6.58780 | 113.26711 | 24734 ft | 419 kts | 14° |
| 2026-04-28 14:04 | -6.55928 | 113.27377 | 25080 ft | 421 kts | 14° |
| 2026-04-28 14:05 | -6.53062 | 113.28047 | 25411 ft | 423 kts | 14° |
| 2026-04-28 14:05 | -6.50184 | 113.28719 | 25753 ft | 425 kts | 14° |
| 2026-04-28 14:05 | -6.47295 | 113.29397 | 26078 ft | 427 kts | 14° |
| 2026-04-28 14:05 | -6.44396 | 113.30078 | 26414 ft | 429 kts | 14° |
| 2026-04-28 14:06 | -6.41477 | 113.30763 | 26724 ft | 431 kts | 14° |
| 2026-04-28 14:06 | -6.38551 | 113.31448 | 27047 ft | 433 kts | 14° |
| 2026-04-28 14:06 | -6.35607 | 113.32138 | 27331 ft | 435 kts | 14° |
| 2026-04-28 14:06 | -6.32652 | 113.32833 | 27639 ft | 437 kts | 14° |
| 2026-04-28 14:07 | -6.29684 | 113.33529 | 27924 ft | 439 kts | 14° |
| 2026-04-28 14:07 | -6.26738 | 113.34221 | 28209 ft | 441 kts | 15° |
| 2026-04-28 14:07 | -6.23825 | 113.35207 | 28482 ft | 442 kts | 25° |
| 2026-04-28 14:07 | -6.21048 | 113.36540 | 28763 ft | 443 kts | 27° |
| 2026-04-28 14:08 | -6.18272 | 113.37900 | 29046 ft | 445 kts | 27° |
| 2026-04-28 14:08 | -6.15485 | 113.39270 | 29313 ft | 447 kts | 27° |
| 2026-04-28 14:08 | -6.12685 | 113.40644 | 29589 ft | 449 kts | 27° |
| 2026-04-28 14:08 | -6.09870 | 113.42018 | 29841 ft | 451 kts | 27° |
| 2026-04-28 14:09 | -6.07043 | 113.43395 | 30082 ft | 452 kts | 26° |
| 2026-04-28 14:09 | -6.04199 | 113.44781 | 30286 ft | 454 kts | 27° |
| 2026-04-28 14:09 | -6.01350 | 113.46167 | 30497 ft | 456 kts | 26° |
| 2026-04-28 14:09 | -5.98483 | 113.47563 | 30719 ft | 457 kts | 27° |
| 2026-04-28 14:10 | -5.95609 | 113.48967 | 30925 ft | 458 kts | 27° |
| 2026-04-28 14:10 | -5.92737 | 113.50375 | 31136 ft | 460 kts | 27° |
| 2026-04-28 14:10 | -5.89895 | 113.51768 | 31326 ft | 461 kts | 27° |
| 2026-04-28 14:10 | -5.87011 | 113.53178 | 31602 ft | 460 kts | 27° |
| 2026-04-28 14:11 | -5.84132 | 113.54583 | 31883 ft | 460 kts | 27° |
| 2026-04-28 14:11 | -5.81254 | 113.55985 | 32174 ft | 459 kts | 27° |
| 2026-04-28 14:11 | -5.78385 | 113.57382 | 32466 ft | 458 kts | 27° |
| 2026-04-28 14:11 | -5.75523 | 113.58777 | 32749 ft | 457 kts | 27° |
| 2026-04-28 14:12 | -5.72657 | 113.60172 | 33042 ft | 457 kts | 27° |
| 2026-04-28 14:12 | -5.69799 | 113.61565 | 33335 ft | 456 kts | 27° |
| 2026-04-28 14:12 | -5.66946 | 113.62958 | 33633 ft | 455 kts | 27° |
| 2026-04-28 14:12 | -5.64095 | 113.64348 | 33925 ft | 454 kts | 27° |
| 2026-04-28 14:13 | -5.61254 | 113.65735 | 34173 ft | 454 kts | 27° |
| 2026-04-28 14:13 | -5.58418 | 113.67119 | 34424 ft | 453 kts | 27° |
| 2026-04-28 14:13 | -5.55622 | 113.68480 | 34689 ft | 451 kts | 27° |
| 2026-04-28 14:13 | -5.52798 | 113.69851 | 34847 ft | 451 kts | 27° |
| 2026-04-28 14:14 | -5.47217 | 113.72567 | 34889 ft | 442 kts | 27° |
| 2026-04-28 14:14 | -5.41700 | 113.75257 | 34892 ft | 440 kts | 27° |
| 2026-04-28 14:15 | -5.36192 | 113.77944 | 34891 ft | 440 kts | 27° |
| 2026-04-28 14:15 | -5.30684 | 113.80629 | 34890 ft | 440 kts | 27° |
| 2026-04-28 14:16 | -5.25176 | 113.83313 | 34890 ft | 440 kts | 27° |
| 2026-04-28 14:16 | -5.19661 | 113.85998 | 34896 ft | 440 kts | 27° |
| 2026-04-28 14:17 | -5.14146 | 113.88676 | 34899 ft | 440 kts | 27° |
| 2026-04-28 14:17 | -5.08626 | 113.91363 | 34902 ft | 440 kts | 27° |
| 2026-04-28 14:18 | -5.03115 | 113.94038 | 34588 ft | 438 kts | 27° |
| 2026-04-28 14:18 | -5.00381 | 113.95367 | 34360 ft | 436 kts | 27° |
| 2026-04-28 14:18 | -4.97656 | 113.96695 | 34135 ft | 434 kts | 28° |
| 2026-04-28 14:19 | -4.95050 | 113.98198 | 33907 ft | 431 kts | 37° |
| 2026-04-28 14:19 | -4.92683 | 114.00024 | 33655 ft | 429 kts | 40° |
| 2026-04-28 14:19 | -4.90356 | 114.01887 | 33406 ft | 427 kts | 40° |
| 2026-04-28 14:19 | -4.88064 | 114.03718 | 33154 ft | 426 kts | 40° |
| 2026-04-28 14:20 | -4.85745 | 114.05560 | 32906 ft | 424 kts | 40° |
| 2026-04-28 14:20 | -4.83434 | 114.07394 | 32660 ft | 423 kts | 40° |
| 2026-04-28 14:20 | -4.81133 | 114.09222 | 32413 ft | 421 kts | 40° |
| 2026-04-28 14:20 | -4.78837 | 114.11047 | 32169 ft | 420 kts | 40° |
| 2026-04-28 14:21 | -4.76550 | 114.12869 | 31926 ft | 418 kts | 40° |
| 2026-04-28 14:21 | -4.74275 | 114.14683 | 31686 ft | 417 kts | 40° |
| 2026-04-28 14:21 | -4.72010 | 114.16488 | 31449 ft | 415 kts | 40° |
| 2026-04-28 14:21 | -4.69753 | 114.18288 | 31209 ft | 414 kts | 40° |
| 2026-04-28 14:22 | -4.67501 | 114.20086 | 30981 ft | 413 kts | 40° |
| 2026-04-28 14:22 | -4.65245 | 114.21884 | 30748 ft | 411 kts | 39° |
| 2026-04-28 14:22 | -4.63035 | 114.23643 | 30522 ft | 410 kts | 39° |
| 2026-04-28 14:22 | -4.60812 | 114.25411 | 30211 ft | 406 kts | 39° |
| 2026-04-28 14:23 | -4.58605 | 114.27165 | 29697 ft | 404 kts | 39° |
| 2026-04-28 14:23 | -4.56409 | 114.28910 | 29219 ft | 401 kts | 39° |
| 2026-04-28 14:23 | -4.54232 | 114.30641 | 28756 ft | 398 kts | 39° |
| 2026-04-28 14:23 | -4.52071 | 114.32359 | 28307 ft | 395 kts | 39° |
| 2026-04-28 14:24 | -4.49928 | 114.34061 | 27867 ft | 392 kts | 40° |
| 2026-04-28 14:24 | -4.47800 | 114.35753 | 27416 ft | 389 kts | 40° |
| 2026-04-28 14:24 | -4.45711 | 114.37418 | 26983 ft | 386 kts | 40° |
| 2026-04-28 14:24 | -4.43617 | 114.39087 | 26538 ft | 384 kts | 40° |
| 2026-04-28 14:25 | -4.41526 | 114.40752 | 26092 ft | 382 kts | 40° |
| 2026-04-28 14:25 | -4.39448 | 114.42404 | 25647 ft | 380 kts | 40° |
| 2026-04-28 14:25 | -4.37373 | 114.44050 | 25180 ft | 379 kts | 40° |
| 2026-04-28 14:25 | -4.35319 | 114.45679 | 24718 ft | 378 kts | 40° |
| 2026-04-28 14:26 | -4.33261 | 114.47313 | 24234 ft | 377 kts | 40° |
| 2026-04-28 14:26 | -4.31206 | 114.48947 | 23756 ft | 377 kts | 40° |
| 2026-04-28 14:26 | -4.29152 | 114.50580 | 23226 ft | 377 kts | 40° |
| 2026-04-28 14:26 | -4.27099 | 114.52211 | 22718 ft | 375 kts | 40° |
| 2026-04-28 14:27 | -4.25061 | 114.53830 | 22242 ft | 373 kts | 40° |
| 2026-04-28 14:27 | -4.23064 | 114.55421 | 21774 ft | 371 kts | 40° |
| 2026-04-28 14:27 | -4.21025 | 114.57049 | 21306 ft | 369 kts | 40° |
| 2026-04-28 14:27 | -4.19025 | 114.58644 | 20841 ft | 367 kts | 40° |
| 2026-04-28 14:28 | -4.17055 | 114.60209 | 20390 ft | 366 kts | 39° |
| 2026-04-28 14:28 | -4.15065 | 114.61788 | 19930 ft | 364 kts | 40° |
| 2026-04-28 14:28 | -4.13063 | 114.63374 | 19471 ft | 363 kts | 40° |
| 2026-04-28 14:28 | -4.11081 | 114.64945 | 19021 ft | 363 kts | 40° |
| 2026-04-28 14:29 | -4.09126 | 114.66497 | 18569 ft | 362 kts | 40° |
| 2026-04-28 14:29 | -4.07155 | 114.68063 | 18121 ft | 362 kts | 40° |
| 2026-04-28 14:29 | -4.05187 | 114.69626 | 17635 ft | 360 kts | 40° |
| 2026-04-28 14:29 | -4.03232 | 114.71181 | 17192 ft | 358 kts | 39° |
| 2026-04-28 14:30 | -4.01285 | 114.72728 | 16749 ft | 356 kts | 39° |
| 2026-04-28 14:30 | -3.99348 | 114.74265 | 16324 ft | 354 kts | 39° |
| 2026-04-28 14:30 | -3.97418 | 114.75796 | 15898 ft | 352 kts | 39° |
| 2026-04-28 14:30 | -3.95498 | 114.77320 | 15484 ft | 351 kts | 39° |
| 2026-04-28 14:31 | -3.93595 | 114.78830 | 15095 ft | 348 kts | 39° |
| 2026-04-28 14:31 | -3.91735 | 114.80308 | 14760 ft | 344 kts | 39° |
| 2026-04-28 14:31 | -3.89868 | 114.81793 | 14383 ft | 342 kts | 39° |
| 2026-04-28 14:31 | -3.88005 | 114.83272 | 13979 ft | 341 kts | 39° |
| 2026-04-28 14:32 | -3.86146 | 114.84745 | 13546 ft | 340 kts | 38° |
| 2026-04-28 14:32 | -3.84141 | 114.85952 | 13277 ft | 334 kts | 27° |
| 2026-04-28 14:32 | -3.82095 | 114.87000 | 13025 ft | 327 kts | 27° |
| 2026-04-28 14:32 | -3.80094 | 114.88026 | 12772 ft | 320 kts | 28° |
| 2026-04-28 14:33 | -3.78128 | 114.89034 | 12524 ft | 314 kts | 28° |
| 2026-04-28 14:33 | -3.76195 | 114.90026 | 12285 ft | 310 kts | 28° |
| 2026-04-28 14:33 | -3.74289 | 114.91004 | 11950 ft | 307 kts | 28° |
| 2026-04-28 14:33 | -3.72389 | 114.91980 | 11548 ft | 307 kts | 27° |
| 2026-04-28 14:34 | -3.68592 | 114.93926 | 10761 ft | 306 kts | 28° |
| 2026-04-28 14:34 | -3.66708 | 114.94890 | 10404 ft | 305 kts | 28° |
| 2026-04-28 14:34 | -3.64841 | 114.95844 | 10086 ft | 297 kts | 28° |
| 2026-04-28 14:35 | -3.63010 | 114.96781 | 9506 ft | 292 kts | 28° |
| 2026-04-28 14:35 | -3.61234 | 114.97690 | 9089 ft | 281 kts | 28° |
| 2026-04-28 14:35 | -3.59524 | 114.98564 | 8679 ft | 272 kts | 27° |
| 2026-04-28 14:35 | -3.57833 | 114.99425 | 8292 ft | 273 kts | 27° |
| 2026-04-28 14:36 | -3.56142 | 115.00289 | 7890 ft | 273 kts | 28° |
| 2026-04-28 14:36 | -3.54450 | 115.01157 | 7475 ft | 274 kts | 28° |
| 2026-04-28 14:36 | -3.52748 | 115.02021 | 7068 ft | 275 kts | 25° |
| 2026-04-28 14:36 | -3.50881 | 115.02351 | 6650 ft | 276 kts | 352° |
| 2026-04-28 14:37 | -3.49141 | 115.01586 | 6196 ft | 278 kts | 318° |
| 2026-04-28 14:37 | -3.48096 | 115.00001 | 5713 ft | 271 kts | 290° |
| 2026-04-28 14:37 | -3.47668 | 114.98201 | 5269 ft | 263 kts | 279° |
| 2026-04-28 14:37 | -3.47468 | 114.96403 | 4810 ft | 255 kts | 276° |
| 2026-04-28 14:38 | -3.47311 | 114.94656 | 4347 ft | 249 kts | 277° |
| 2026-04-28 14:38 | -3.47127 | 114.92959 | 3967 ft | 241 kts | 278° |
| 2026-04-28 14:38 | -3.46911 | 114.91349 | 3588 ft | 225 kts | 279° |
| 2026-04-28 14:38 | -3.46683 | 114.89877 | 3256 ft | 209 kts | 281° |
| 2026-04-28 14:39 | -3.46452 | 114.88489 | 2922 ft | 192 kts | 281° |
| 2026-04-28 14:39 | -3.46237 | 114.87241 | 2636 ft | 176 kts | 281° |
| 2026-04-28 14:39 | -3.46028 | 114.86067 | 2333 ft | 167 kts | 281° |
| 2026-04-28 14:39 | -3.45827 | 114.84955 | 2051 ft | 158 kts | 281° |
| 2026-04-28 14:40 | -3.45634 | 114.83889 | 1785 ft | 154 kts | 279° |
| 2026-04-28 14:40 | -3.45569 | 114.83534 | 1697 ft | 153 kts | 279° |
| 2026-04-28 14:40 | -3.45252 | 114.81805 | 1264 ft | 151 kts | 279° |
| 2026-04-28 14:40 | -3.45065 | 114.80779 | 1019 ft | 149 kts | 279° |
| 2026-04-28 14:41 | -3.44881 | 114.79766 | 764 ft | 147 kts | 278° |
| 2026-04-28 14:41 | -3.44694 | 114.78762 | 432 ft | 146 kts | 277° |
| 2026-04-28 14:41 | -3.44509 | 114.77777 | 217 ft | 143 kts | 278° |
| 2026-04-28 14:41 | -3.44335 | 114.76819 | 68 ft | 128 kts | 278° |
| 2026-04-28 14:42 | -3.44222 | 114.76205 | 74 ft | 46 kts | 280° |
| 2026-04-28 14:42 | -3.44190 | 114.76028 | 69 ft | 23 kts | 280° |
| 2026-04-28 14:42 | -3.44158 | 114.75948 | 70 ft | 9 kts | 336° |
| 2026-04-28 14:42 | -3.44097 | 114.75951 | 71 ft | 9 kts | 9° |
| 2026-04-28 14:43 | -3.44040 | 114.75962 | 73 ft | 8 kts | 11° |
| 2026-04-28 14:43 | -3.43988 | 114.75971 | 75 ft | 7 kts | 11° |
| 2026-04-28 14:43 | -3.43944 | 114.75978 | 75 ft | 5 kts | 358° |
| 2026-04-28 14:43 | -3.43918 | 114.75961 | 69 ft | 4 kts | 301° |
| 2026-04-28 14:44 | -3.43914 | 114.75937 | 75 ft | 3 kts | 280° |
| 2026-04-28 14:44 | -3.43910 | 114.75919 | 75 ft | 2 kts | 281° |
| 2026-04-28 14:44 | -3.43902 | 114.75889 | 69 ft | 6 kts | 294° |
| 2026-04-28 14:44 | -3.43872 | 114.75879 | 72 ft | 4 kts | 8° |
| 2026-04-28 14:45 | -3.43846 | 114.75884 | 73 ft | 3 kts | 10° |
| 2026-04-28 14:45 | -3.43829 | 114.75887 | 68 ft | 1 kts | 10° |
| 2026-04-28 14:45 | -3.43826 | 114.75888 | 68 ft | 0 kts | 10° |
| 2026-04-28 14:45 | -3.43822 | 114.75888 | 68 ft | 1 kts | 10° |
| 2026-04-28 14:46 | -3.43819 | 114.75889 | 70 ft | 1 kts | 10° |
| 2026-04-28 14:46 | -3.43815 | 114.75889 | 71 ft | 1 kts | 10° |
| 2026-04-28 14:46 | -3.43813 | 114.75890 | 72 ft | 0 kts | 10° |